createdAt,value
2017-11-17T00:00:02.372Z,92.89
2017-11-17T00:01:05.047Z,92.87
2017-11-17T00:02:07.674Z,92.87
2017-11-17T00:03:10.277Z,92.82
2017-11-17T00:04:12.872Z,92.64
2017-11-17T00:05:15.774Z,92.70
2017-11-17T00:06:18.353Z,92.72
2017-11-17T00:07:20.961Z,92.69
2017-11-17T00:08:23.563Z,92.75
2017-11-17T00:09:26.193Z,92.79
2017-11-17T00:10:28.831Z,92.79
2017-11-17T00:11:31.744Z,92.76
2017-11-17T00:12:34.485Z,92.77
2017-11-17T00:13:37.140Z,92.83
2017-11-17T00:14:39.861Z,92.81
2017-11-17T00:15:42.528Z,92.93
2017-11-17T00:16:45.198Z,92.94
2017-11-17T00:17:48.183Z,92.99
2017-11-17T00:18:50.821Z,93.12
2017-11-17T00:19:53.460Z,93.16
2017-11-17T00:20:56.134Z,93.14
2017-11-17T00:21:58.795Z,93.07
2017-11-17T00:23:01.449Z,93.16
2017-11-17T00:24:04.358Z,93.11
2017-11-17T00:25:06.990Z,93.13
2017-11-17T00:26:09.686Z,93.16
2017-11-17T00:27:12.332Z,93.22
2017-11-17T00:28:14.935Z,93.28
2017-11-17T00:29:17.568Z,93.27
2017-11-17T00:30:20.474Z,93.29
2017-11-17T00:31:23.122Z,93.35
2017-11-17T00:32:25.752Z,93.34
2017-11-17T00:33:28.369Z,93.33
2017-11-17T00:34:31.027Z,93.33
2017-11-17T00:35:33.666Z,93.37
2017-11-17T00:36:36.629Z,93.34
2017-11-17T00:37:39.270Z,93.31
2017-11-17T00:38:43.496Z,93.30
2017-11-17T00:39:46.133Z,93.27
2017-11-17T00:40:49.487Z,93.41
2017-11-17T00:41:52.102Z,93.65
2017-11-17T00:42:55.108Z,93.61
2017-11-17T00:43:57.788Z,93.56
2017-11-17T00:45:00.439Z,93.69
2017-11-17T00:46:03.124Z,93.69
2017-11-17T00:47:05.806Z,93.62
2017-11-17T00:48:08.445Z,93.60
2017-11-17T00:49:11.399Z,93.57
2017-11-17T00:50:14.057Z,93.53
2017-11-17T00:51:16.713Z,93.48
2017-11-17T00:52:19.363Z,93.43
2017-11-17T00:53:22.782Z,93.41
2017-11-17T00:54:25.390Z,93.32
2017-11-17T00:55:28.300Z,93.28
2017-11-17T00:56:30.954Z,93.24
2017-11-17T00:57:33.568Z,93.18
2017-11-17T00:58:36.221Z,93.17
2017-11-17T00:59:38.885Z,93.13
2017-11-17T01:00:41.541Z,93.02
2017-11-17T01:01:44.507Z,92.98
2017-11-17T01:02:47.153Z,93.02
2017-11-17T01:03:49.807Z,93.06
2017-11-17T01:04:52.544Z,93.06
2017-11-17T01:05:55.206Z,93.06
2017-11-17T01:06:57.867Z,92.97
2017-11-17T01:08:00.837Z,92.76
2017-11-17T01:09:03.693Z,92.78
2017-11-17T01:10:06.258Z,92.72
2017-11-17T01:11:09.611Z,92.60
2017-11-17T01:12:12.313Z,92.75
2017-11-17T01:13:14.995Z,92.97
2017-11-17T01:14:17.868Z,92.99
2017-11-17T01:15:20.536Z,92.97
2017-11-17T01:16:23.122Z,92.91
2017-11-17T01:17:25.756Z,92.86
2017-11-17T01:18:28.343Z,92.82
2017-11-17T01:19:30.951Z,92.74
2017-11-17T01:20:33.825Z,92.70
2017-11-17T01:21:36.456Z,92.88
2017-11-17T01:22:39.072Z,92.99
2017-11-17T01:23:41.694Z,93.51
2017-11-17T01:24:44.417Z,93.73
2017-11-17T01:25:47.079Z,93.94
2017-11-17T01:26:49.986Z,94.01
2017-11-17T01:27:52.640Z,93.97
2017-11-17T01:28:55.276Z,93.83
2017-11-17T01:29:57.909Z,93.74
2017-11-17T01:31:00.564Z,93.65
2017-11-17T01:32:03.227Z,93.54
2017-11-17T01:33:06.151Z,93.38
2017-11-17T01:34:08.758Z,93.42
2017-11-17T01:35:11.383Z,93.39
2017-11-17T01:36:14.139Z,93.28
2017-11-17T01:37:16.799Z,93.30
2017-11-17T01:38:19.775Z,93.25
2017-11-17T01:39:22.390Z,93.16
2017-11-17T01:40:25.017Z,93.12
2017-11-17T01:41:27.658Z,93.13
2017-11-17T01:42:30.471Z,93.22
2017-11-17T01:43:33.129Z,93.30
2017-11-17T01:44:36.100Z,93.27
2017-11-17T01:45:38.721Z,93.53
2017-11-17T01:46:41.393Z,93.83
2017-11-17T01:47:44.025Z,93.91
2017-11-17T01:48:46.660Z,94.22
2017-11-17T01:49:49.297Z,94.84
2017-11-17T01:50:52.226Z,95.07
2017-11-17T01:51:54.893Z,94.82
2017-11-17T01:52:57.634Z,94.76
2017-11-17T01:54:00.276Z,94.71
2017-11-17T01:55:02.916Z,94.60
2017-11-17T01:56:05.608Z,94.48
2017-11-17T01:57:08.546Z,94.56
2017-11-17T01:58:11.184Z,94.52
2017-11-17T01:59:13.802Z,94.55
2017-11-17T02:00:16.458Z,94.59
2017-11-17T02:16:26.535Z,91.19
2017-11-17T02:17:29.433Z,90.40
2017-11-17T02:18:32.060Z,90.61
2017-11-17T02:19:34.725Z,91.63
2017-11-17T02:20:37.364Z,92.06
2017-11-17T02:21:40.300Z,92.17
2017-11-17T02:22:42.969Z,92.14
2017-11-17T02:23:45.636Z,92.22
2017-11-17T02:24:48.269Z,92.21
2017-11-17T02:25:50.912Z,92.19
2017-11-17T02:26:53.533Z,92.21
2017-11-17T02:27:56.392Z,92.24
2017-11-17T02:28:59.056Z,92.28
2017-11-17T02:30:01.696Z,92.29
2017-11-17T02:31:04.324Z,92.37
2017-11-17T02:32:06.962Z,92.35
2017-11-17T02:33:09.539Z,92.39
2017-11-17T02:34:12.395Z,92.35
2017-11-17T02:35:15.014Z,92.24
2017-11-17T02:36:18.031Z,92.17
2017-11-17T02:37:21.454Z,92.17
2017-11-17T02:38:24.109Z,92.06
2017-11-17T02:39:26.757Z,92.01
2017-11-17T02:40:29.718Z,92.12
2017-11-17T02:41:32.981Z,92.14
2017-11-17T02:42:35.628Z,92.11
2017-11-17T02:43:38.320Z,92.06
2017-11-17T02:44:40.982Z,92.06
2017-11-17T02:45:43.655Z,92.05
2017-11-17T02:46:46.628Z,92.06
2017-11-17T02:47:49.238Z,92.15
2017-11-17T02:48:51.832Z,92.34
2017-11-17T02:49:54.503Z,92.37
2017-11-17T02:50:57.173Z,92.44
2017-11-17T02:51:59.917Z,92.72
2017-11-17T02:53:03.014Z,92.61
2017-11-17T02:54:05.745Z,92.46
2017-11-17T02:55:08.443Z,92.23
2017-11-17T02:56:11.112Z,92.05
2017-11-17T02:57:14.918Z,92.10
2017-11-17T02:58:17.580Z,92.09
2017-11-17T02:59:20.562Z,92.06
2017-11-17T03:00:24.128Z,91.96
2017-11-17T03:01:27.258Z,91.95
2017-11-17T03:02:29.933Z,91.99
2017-11-17T03:03:32.489Z,91.92
2017-11-17T03:04:35.061Z,91.27
2017-11-17T03:05:38.013Z,91.12
2017-11-17T03:06:40.689Z,90.97
2017-11-17T03:07:43.341Z,90.78
2017-11-17T03:08:46.054Z,90.88
2017-11-17T03:09:48.693Z,91.00
2017-11-17T03:10:51.305Z,91.16
2017-11-17T03:11:54.103Z,91.14
2017-11-17T03:12:56.793Z,91.15
2017-11-17T03:13:59.365Z,91.06
2017-11-17T03:15:01.942Z,91.14
2017-11-17T03:16:04.765Z,91.28
2017-11-17T03:17:07.318Z,91.19
2017-11-17T03:18:10.264Z,91.19
2017-11-17T03:19:12.856Z,91.03
2017-11-17T03:20:15.519Z,91.24
2017-11-17T03:21:18.099Z,91.37
2017-11-17T03:22:20.677Z,91.22
2017-11-17T03:23:23.224Z,91.11
2017-11-17T03:24:26.085Z,91.04
2017-11-17T03:25:28.666Z,91.05
2017-11-17T03:26:31.248Z,91.10
2017-11-17T03:27:33.808Z,91.00
2017-11-17T03:28:36.372Z,90.94
2017-11-17T03:29:38.972Z,90.90
2017-11-17T03:30:41.871Z,90.78
2017-11-17T03:31:44.451Z,90.79
2017-11-17T03:32:47.087Z,90.71
2017-11-17T03:33:49.712Z,90.81
2017-11-17T03:34:52.453Z,90.80
2017-11-17T03:35:55.140Z,90.85
2017-11-17T03:36:58.148Z,90.92
2017-11-17T03:38:00.837Z,90.96
2017-11-17T03:39:03.586Z,90.98
2017-11-17T03:40:06.261Z,91.19
2017-11-17T03:41:08.897Z,91.29
2017-11-17T03:42:11.479Z,91.69
2017-11-17T03:43:14.314Z,91.74
2017-11-17T03:44:16.871Z,91.82
2017-11-17T03:45:19.461Z,92.21
2017-11-17T03:46:22.104Z,92.71
2017-11-17T03:47:24.743Z,92.35
2017-11-17T03:48:27.304Z,92.44
2017-11-17T03:49:30.153Z,92.43
2017-11-17T03:50:32.706Z,92.44
2017-11-17T03:51:35.281Z,92.38
2017-11-17T03:52:37.849Z,92.17
2017-11-17T03:53:40.468Z,92.25
2017-11-17T03:54:43.893Z,92.19
2017-11-17T03:55:46.856Z,92.13
2017-11-17T03:56:49.540Z,91.90
2017-11-17T03:57:52.233Z,91.62
2017-11-17T03:58:55.018Z,91.35
2017-11-17T03:59:58.021Z,91.50
2017-11-17T04:01:00.888Z,91.64
2017-11-17T04:02:04.141Z,91.71
2017-11-17T04:03:06.860Z,91.68
2017-11-17T04:04:09.522Z,91.63
2017-11-17T04:05:12.182Z,91.65
2017-11-17T04:06:14.863Z,91.72
2017-11-17T04:07:17.575Z,91.82
2017-11-17T04:08:20.519Z,91.82
2017-11-17T04:09:23.207Z,91.77
2017-11-17T04:10:25.897Z,91.75
2017-11-17T04:11:28.575Z,91.69
2017-11-17T04:12:31.248Z,91.65
2017-11-17T04:13:33.911Z,91.60
2017-11-17T04:14:36.888Z,91.68
2017-11-17T04:15:39.593Z,91.73
2017-11-17T04:16:42.253Z,91.64
2017-11-17T04:17:44.942Z,91.57
2017-11-17T04:18:47.590Z,91.50
2017-11-17T04:19:50.359Z,91.61
2017-11-17T04:20:53.291Z,92.01
2017-11-17T04:21:56.013Z,92.03
2017-11-17T04:22:58.820Z,91.83
2017-11-17T04:24:01.586Z,91.87
2017-11-17T04:25:04.200Z,92.02
2017-11-17T04:26:06.871Z,91.95
2017-11-17T04:27:09.573Z,92.13
2017-11-17T04:28:12.223Z,92.05
2017-11-17T04:29:14.820Z,92.09
2017-11-17T04:30:17.449Z,91.97
2017-11-17T04:31:20.082Z,91.53
2017-11-17T04:32:23.041Z,91.00
2017-11-17T04:33:25.708Z,90.90
2017-11-17T04:34:28.370Z,91.00
2017-11-17T04:35:31.041Z,90.80
2017-11-17T04:36:33.730Z,91.39
2017-11-17T04:37:36.392Z,91.52
2017-11-17T04:38:39.333Z,91.57
2017-11-17T04:39:41.995Z,91.61
2017-11-17T04:40:44.639Z,91.69
2017-11-17T04:41:47.313Z,91.85
2017-11-17T04:42:49.986Z,91.75
2017-11-17T04:43:52.657Z,91.72
2017-11-17T04:44:55.603Z,91.73
2017-11-17T04:45:58.284Z,91.69
2017-11-17T04:47:00.931Z,91.90
2017-11-17T04:48:03.599Z,91.90
2017-11-17T04:49:06.256Z,92.14
2017-11-17T04:50:08.918Z,92.10
2017-11-17T04:51:11.621Z,92.04
2017-11-17T04:52:14.384Z,91.88
2017-11-17T04:53:17.035Z,91.91
2017-11-17T04:54:19.678Z,91.90
2017-11-17T04:55:22.409Z,91.88
2017-11-17T04:56:25.340Z,91.89
2017-11-17T04:57:28.264Z,91.89
2017-11-17T04:58:30.962Z,91.91
2017-11-17T04:59:33.632Z,91.84
2017-11-17T05:15:04.871Z,94.29
2017-11-17T05:16:07.479Z,94.06
2017-11-17T05:17:10.017Z,93.96
2017-11-17T05:18:13.524Z,93.90
2017-11-17T05:19:16.204Z,93.75
2017-11-17T05:20:19.143Z,93.60
2017-11-17T05:21:21.812Z,93.34
2017-11-17T05:22:24.482Z,93.02
2017-11-17T05:23:28.104Z,93.10
2017-11-17T05:24:30.804Z,93.46
2017-11-17T05:25:33.472Z,93.94
2017-11-17T05:26:36.638Z,94.12
2017-11-17T05:27:39.354Z,94.43
2017-11-17T05:28:42.058Z,94.39
2017-11-17T05:29:44.705Z,94.43
2017-11-17T05:30:47.394Z,94.29
2017-11-17T05:31:50.075Z,94.33
2017-11-17T05:32:53.014Z,94.41
2017-11-17T05:33:55.695Z,94.46
2017-11-17T05:34:58.404Z,94.46
2017-11-17T05:36:01.179Z,94.43
2017-11-17T05:37:03.829Z,94.49
2017-11-17T05:38:06.525Z,94.60
2017-11-17T05:39:09.479Z,94.55
2017-11-17T05:40:12.172Z,94.48
2017-11-17T05:41:14.832Z,94.45
2017-11-17T05:42:17.486Z,94.40
2017-11-17T05:43:20.208Z,94.28
2017-11-17T05:44:22.900Z,94.16
2017-11-17T05:45:25.909Z,94.06
2017-11-17T05:46:28.826Z,94.07
2017-11-17T05:47:31.467Z,94.15
2017-11-17T05:48:34.149Z,94.16
2017-11-17T05:49:36.808Z,94.22
2017-11-17T05:50:39.610Z,94.14
2017-11-17T05:51:42.569Z,94.03
2017-11-17T05:52:45.340Z,94.07
2017-11-17T05:53:48.020Z,93.98
2017-11-17T05:54:50.720Z,93.95
2017-11-17T05:55:53.468Z,93.99
2017-11-17T05:56:56.163Z,93.97
2017-11-17T05:57:58.818Z,93.93
2017-11-17T05:59:01.521Z,93.87
2017-11-17T06:00:04.193Z,93.80
2017-11-17T06:01:06.924Z,93.79
2017-11-17T06:02:09.679Z,93.75
2017-11-17T06:03:12.713Z,93.71
2017-11-17T06:04:15.386Z,93.59
2017-11-17T06:05:18.078Z,93.68
2017-11-17T06:06:20.750Z,93.82
2017-11-17T06:07:23.448Z,93.89
2017-11-17T06:08:26.105Z,93.89
2017-11-17T06:09:29.134Z,93.84
2017-11-17T06:10:31.829Z,93.83
2017-11-17T06:11:34.523Z,93.75
2017-11-17T06:12:37.181Z,93.77
2017-11-17T06:13:39.860Z,93.78
2017-11-17T06:14:42.508Z,93.77
2017-11-17T06:15:45.205Z,93.72
2017-11-17T06:16:47.852Z,93.70
2017-11-17T06:17:50.536Z,93.69
2017-11-17T06:18:53.196Z,93.68
2017-11-17T06:19:55.888Z,93.66
2017-11-17T06:20:58.536Z,93.65
2017-11-17T06:22:01.208Z,93.65
2017-11-17T06:23:03.912Z,93.57
2017-11-17T06:24:07.125Z,93.60
2017-11-17T06:25:10.688Z,93.62
2017-11-17T06:26:13.415Z,93.72
2017-11-17T06:27:16.083Z,93.77
2017-11-17T06:28:18.804Z,93.79
2017-11-17T06:29:21.496Z,93.85
2017-11-17T06:30:24.172Z,93.82
2017-11-17T06:31:27.153Z,93.80
2017-11-17T06:32:29.879Z,93.77
2017-11-17T06:33:32.580Z,93.72
2017-11-17T06:34:35.244Z,93.72
2017-11-17T06:35:37.889Z,93.70
2017-11-17T06:36:40.607Z,93.65
2017-11-17T06:37:43.613Z,93.69
2017-11-17T06:38:46.328Z,93.67
2017-11-17T06:39:48.936Z,93.67
2017-11-17T06:40:51.546Z,93.67
2017-11-17T06:41:54.141Z,93.72
2017-11-17T06:42:56.858Z,93.71
2017-11-17T06:43:59.829Z,93.69
2017-11-17T06:45:03.280Z,93.70
2017-11-17T06:46:05.991Z,93.72
2017-11-17T06:47:08.691Z,93.76
2017-11-17T06:48:11.442Z,93.98
2017-11-17T06:49:15.117Z,94.11
2017-11-17T06:50:17.903Z,94.15
2017-11-17T06:51:20.607Z,94.17
2017-11-17T06:52:23.358Z,94.12
2017-11-17T06:53:26.051Z,94.03
2017-11-17T06:54:28.805Z,93.96
2017-11-17T06:55:31.810Z,93.80
2017-11-17T06:56:34.552Z,93.72
2017-11-17T06:57:37.298Z,93.71
2017-11-17T06:58:39.965Z,93.70
2017-11-17T06:59:42.645Z,93.65
2017-11-17T07:00:45.352Z,93.62
2017-11-17T07:01:48.358Z,93.61
2017-11-17T07:02:51.015Z,93.54
2017-11-17T07:03:53.709Z,93.49
2017-11-17T07:04:56.418Z,93.26
2017-11-17T07:05:59.045Z,93.36
2017-11-17T07:07:02.389Z,93.43
2017-11-17T07:08:05.325Z,93.45
2017-11-17T07:09:08.022Z,93.50
2017-11-17T07:10:10.684Z,93.44
2017-11-17T07:11:13.409Z,93.39
2017-11-17T07:12:16.103Z,93.41
2017-11-17T07:13:18.954Z,93.42
2017-11-17T07:14:22.039Z,93.32
2017-11-17T07:15:24.717Z,93.15
2017-11-17T07:16:27.400Z,92.98
2017-11-17T07:17:30.112Z,93.09
2017-11-17T07:18:32.811Z,93.29
2017-11-17T07:19:35.502Z,93.38
2017-11-17T07:20:38.522Z,93.49
2017-11-17T07:21:41.232Z,93.63
2017-11-17T07:22:43.967Z,93.69
2017-11-17T07:23:46.733Z,93.68
2017-11-17T07:24:49.440Z,93.64
2017-11-17T07:25:52.149Z,93.56
2017-11-17T07:26:55.116Z,93.58
2017-11-17T07:27:57.829Z,93.59
2017-11-17T07:29:00.550Z,93.64
2017-11-17T07:30:03.254Z,93.71
2017-11-17T07:31:05.945Z,93.87
2017-11-17T07:32:08.663Z,93.96
2017-11-17T07:33:11.664Z,93.88
2017-11-17T07:34:14.324Z,93.81
2017-11-17T07:35:17.096Z,93.72
2017-11-17T07:36:19.781Z,93.64
2017-11-17T07:37:22.448Z,93.55
2017-11-17T07:38:25.099Z,93.43
2017-11-17T07:39:28.116Z,93.35
2017-11-17T07:40:30.779Z,93.33
2017-11-17T07:41:33.468Z,93.68
2017-11-17T07:42:36.149Z,93.80
2017-11-17T07:43:38.817Z,93.73
2017-11-17T07:44:41.557Z,93.58
2017-11-17T07:45:44.520Z,93.36
2017-11-17T07:46:47.268Z,93.31
2017-11-17T07:47:49.925Z,93.27
2017-11-17T07:48:52.621Z,93.05
2017-11-17T07:49:55.248Z,93.14
2017-11-17T07:50:58.088Z,93.10
2017-11-17T07:52:01.444Z,93.03
2017-11-17T07:53:04.116Z,93.04
2017-11-17T07:54:06.739Z,92.92
2017-11-17T07:55:09.386Z,92.97
2017-11-17T07:56:12.055Z,93.15
2017-11-17T07:57:14.823Z,93.19
2017-11-17T07:58:17.808Z,92.95
2017-11-17T07:59:20.455Z,92.70
2017-11-17T08:00:23.145Z,92.51
2017-11-17T08:01:25.844Z,92.43
2017-11-17T08:02:28.791Z,92.28
2017-11-17T08:03:31.479Z,92.28
2017-11-17T08:04:34.549Z,92.07
2017-11-17T08:05:37.208Z,92.08
2017-11-17T08:06:40.014Z,92.21
2017-11-17T08:07:42.917Z,92.11
2017-11-17T08:08:45.565Z,92.16
2017-11-17T08:09:48.640Z,92.12
2017-11-17T08:10:51.612Z,92.08
2017-11-17T08:11:54.340Z,92.10
2017-11-17T08:12:57.002Z,92.07
2017-11-17T08:13:59.677Z,92.17
2017-11-17T08:30:38.229Z,93.32
2017-11-17T08:31:41.164Z,93.13
2017-11-17T08:32:43.936Z,93.03
2017-11-17T08:33:46.708Z,93.01
2017-11-17T08:34:49.421Z,93.06
2017-11-17T08:35:52.623Z,93.21
2017-11-17T08:36:55.509Z,93.22
2017-11-17T08:37:58.571Z,93.17
2017-11-17T08:39:01.287Z,93.11
2017-11-17T08:40:03.967Z,92.94
2017-11-17T08:41:06.763Z,92.83
2017-11-17T08:42:09.745Z,92.66
2017-11-17T08:43:12.444Z,92.61
2017-11-17T08:44:15.128Z,92.41
2017-11-17T08:45:17.828Z,92.04
2017-11-17T08:46:20.523Z,91.79
2017-11-17T08:47:23.225Z,91.87
2017-11-17T08:48:26.093Z,91.71
2017-11-17T08:49:28.691Z,91.61
2017-11-17T08:50:31.272Z,91.30
2017-11-17T08:51:33.897Z,91.06
2017-11-17T08:52:36.495Z,90.92
2017-11-17T08:53:39.079Z,90.42
2017-11-17T08:54:41.956Z,90.44
2017-11-17T08:55:44.670Z,90.30
2017-11-17T08:56:47.388Z,90.20
2017-11-17T08:57:50.094Z,90.36
2017-11-17T08:58:52.884Z,90.47
2017-11-17T08:59:55.634Z,90.45
2017-11-17T09:00:58.819Z,90.38
2017-11-17T09:02:01.595Z,90.42
2017-11-17T09:03:04.913Z,90.18
2017-11-17T09:04:08.146Z,90.11
2017-11-17T09:05:10.812Z,89.85
2017-11-17T09:06:13.536Z,89.89
2017-11-17T09:07:16.538Z,90.18
2017-11-17T09:08:19.234Z,89.89
2017-11-17T09:09:22.545Z,89.97
2017-11-17T09:10:25.191Z,90.00
2017-11-17T09:11:27.818Z,90.17
2017-11-17T09:12:30.675Z,90.38
2017-11-17T09:13:33.647Z,90.70
2017-11-17T09:14:36.328Z,90.78
2017-11-17T09:15:39.033Z,91.39
2017-11-17T09:16:43.959Z,91.37
2017-11-17T09:17:47.136Z,91.11
2017-11-17T09:18:49.824Z,90.97
2017-11-17T09:19:52.798Z,90.63
2017-11-17T09:20:55.486Z,90.33
2017-11-17T09:21:58.192Z,89.92
2017-11-17T09:23:00.910Z,89.63
2017-11-17T09:24:03.642Z,89.48
2017-11-17T09:25:06.331Z,89.11
2017-11-17T09:26:09.352Z,88.96
2017-11-17T09:27:13.011Z,89.37
2017-11-17T09:28:15.788Z,89.48
2017-11-17T09:29:18.624Z,89.13
2017-11-17T09:30:21.386Z,88.84
2017-11-17T09:31:24.110Z,88.85
2017-11-17T09:32:27.272Z,88.48
2017-11-17T09:33:29.981Z,88.59
2017-11-17T09:34:32.735Z,88.54
2017-11-17T09:35:35.458Z,88.44
2017-11-17T09:36:38.210Z,88.53
2017-11-17T09:37:40.929Z,88.36
2017-11-17T09:38:44.124Z,88.19
2017-11-17T09:39:46.877Z,88.17
2017-11-17T09:40:49.560Z,87.81
2017-11-17T09:41:52.845Z,87.70
2017-11-17T09:42:55.536Z,87.07
2017-11-17T09:43:58.237Z,86.55
2017-11-17T09:45:01.740Z,86.58
2017-11-17T09:46:06.150Z,85.76
2017-11-17T09:47:08.850Z,85.22
2017-11-17T09:48:12.239Z,86.14
2017-11-17T09:49:14.934Z,85.87
2017-11-17T09:50:17.667Z,85.80
2017-11-17T09:51:20.813Z,85.85
2017-11-17T09:52:23.531Z,85.65
2017-11-17T09:53:26.217Z,85.51
2017-11-17T09:54:28.896Z,85.95
2017-11-17T09:55:31.609Z,85.90
2017-11-17T09:56:34.649Z,85.91
2017-11-17T09:57:38.144Z,85.96
2017-11-17T09:58:40.835Z,86.43
2017-11-17T09:59:43.529Z,86.44
2017-11-17T10:00:46.221Z,86.39
2017-11-17T10:01:48.917Z,86.25
2017-11-17T10:02:51.613Z,86.70
2017-11-17T10:03:54.327Z,86.88
2017-11-17T10:04:57.014Z,86.78
2017-11-17T10:05:59.702Z,86.99
2017-11-17T10:07:02.382Z,87.41
2017-11-17T10:08:05.090Z,87.22
2017-11-17T10:09:07.865Z,86.57
2017-11-17T10:10:11.023Z,86.37
2017-11-17T10:11:13.686Z,86.00
2017-11-17T10:12:16.608Z,85.83
2017-11-17T10:13:19.363Z,85.41
2017-11-17T10:14:22.307Z,84.98
2017-11-17T10:15:24.984Z,84.26
2017-11-17T10:16:31.627Z,83.63
2017-11-17T10:17:34.333Z,82.99
2017-11-17T10:18:37.083Z,83.38
2017-11-17T10:19:39.811Z,83.72
2017-11-17T10:20:42.514Z,83.70
2017-11-17T10:21:45.190Z,83.75
2017-11-17T10:24:01.465Z,82.79
2017-11-17T10:25:04.354Z,81.90
2017-11-17T10:26:07.009Z,81.22
2017-11-17T10:27:09.734Z,81.92
2017-11-17T10:28:13.130Z,82.32
2017-11-17T10:29:15.837Z,82.90
2017-11-17T10:30:18.932Z,82.19
2017-11-17T10:31:21.590Z,82.04
2017-11-17T10:32:24.243Z,82.71
2017-11-17T10:33:26.866Z,82.34
2017-11-17T10:34:29.572Z,81.41
2017-11-17T10:35:32.228Z,81.85
2017-11-17T10:36:35.185Z,82.14
2017-11-17T10:37:37.908Z,82.19
2017-11-17T10:38:41.230Z,81.97
2017-11-17T10:39:44.016Z,80.36
2017-11-17T10:40:46.681Z,80.75
2017-11-17T10:41:49.652Z,81.21
2017-11-17T10:42:53.214Z,81.37
2017-11-17T10:43:56.058Z,81.00
2017-11-17T10:44:58.734Z,80.64
2017-11-17T10:46:02.261Z,80.53
2017-11-17T10:47:06.389Z,80.01
2017-11-17T10:48:08.989Z,80.37
2017-11-17T10:49:11.672Z,81.46
2017-11-17T10:50:14.434Z,81.17
2017-11-17T10:51:17.168Z,80.76
2017-11-17T10:52:19.901Z,80.31
2017-11-17T10:53:22.597Z,81.31
2017-11-17T10:54:26.095Z,80.57
2017-11-17T10:55:28.939Z,80.38
2017-11-17T10:56:31.693Z,80.00
2017-11-17T10:57:34.362Z,79.89
2017-11-17T10:58:37.019Z,80.09
2017-11-17T11:15:34.492Z,82.31
2017-11-17T11:16:37.543Z,82.19
2017-11-17T11:17:40.484Z,82.32
2017-11-17T11:18:44.426Z,82.83
2017-11-17T11:19:47.165Z,82.96
2017-11-17T11:20:50.485Z,82.99
2017-11-17T11:21:53.119Z,82.97
2017-11-17T11:22:55.899Z,82.81
2017-11-17T11:23:58.627Z,82.63
2017-11-17T11:25:01.356Z,82.78
2017-11-17T11:26:04.073Z,83.38
2017-11-17T11:27:07.039Z,83.85
2017-11-17T11:28:10.308Z,83.58
2017-11-17T11:29:13.055Z,83.30
2017-11-17T11:30:15.812Z,82.70
2017-11-17T11:31:18.611Z,82.20
2017-11-17T11:32:21.413Z,82.80
2017-11-17T11:33:24.420Z,83.03
2017-11-17T11:34:27.116Z,83.28
2017-11-17T11:35:29.812Z,82.05
2017-11-17T11:36:32.483Z,81.94
2017-11-17T11:37:35.241Z,81.50
2017-11-17T11:38:38.012Z,80.75
2017-11-17T11:39:41.062Z,80.02
2017-11-17T11:40:43.831Z,80.50
2017-11-17T11:41:46.500Z,80.67
2017-11-17T11:42:49.219Z,80.86
2017-11-17T11:43:51.871Z,82.16
2017-11-17T11:44:54.611Z,80.35
2017-11-17T11:45:57.691Z,79.97
2017-11-17T11:47:00.370Z,79.79
2017-11-17T11:48:03.132Z,79.73
2017-11-17T11:49:05.904Z,79.56
2017-11-17T11:50:08.632Z,79.43
2017-11-17T11:51:11.338Z,79.83
2017-11-17T11:52:14.528Z,79.72
2017-11-17T11:53:17.215Z,78.97
2017-11-17T11:54:19.984Z,78.84
2017-11-17T11:55:23.882Z,78.34
2017-11-17T11:56:26.609Z,78.18
2017-11-17T11:57:29.307Z,77.76
2017-11-17T11:58:32.462Z,77.37
2017-11-17T11:59:35.382Z,77.26
2017-11-17T12:00:38.374Z,77.04
2017-11-17T12:01:41.387Z,76.77
2017-11-17T12:02:44.213Z,76.44
2017-11-17T12:03:46.937Z,76.42
2017-11-17T12:04:50.777Z,76.62
2017-11-17T12:05:53.451Z,76.44
2017-11-17T12:06:56.240Z,76.48
2017-11-17T12:07:59.847Z,75.84
2017-11-17T12:09:02.760Z,76.00
2017-11-17T12:10:05.459Z,75.92
2017-11-17T12:11:08.160Z,75.56
2017-11-17T12:12:11.277Z,75.42
2017-11-17T12:13:14.493Z,74.75
2017-11-17T12:14:17.150Z,75.27
2017-11-17T12:15:20.189Z,75.20
2017-11-17T12:16:22.886Z,75.08
2017-11-17T12:17:25.671Z,75.47
2017-11-17T12:18:28.411Z,76.08
2017-11-17T12:19:31.377Z,75.22
2017-11-17T12:20:35.584Z,74.93
2017-11-17T12:21:39.750Z,74.70
2017-11-17T12:22:42.409Z,74.49
2017-11-17T12:23:45.150Z,74.52
2017-11-17T12:24:47.900Z,75.19
2017-11-17T12:25:50.582Z,74.92
2017-11-17T12:26:54.271Z,75.62
2017-11-17T12:27:57.442Z,75.76
2017-11-17T12:29:00.981Z,74.89
2017-11-17T12:30:04.094Z,74.48
2017-11-17T12:31:06.891Z,74.58
2017-11-17T12:32:09.572Z,73.95
2017-11-17T12:33:12.295Z,74.05
2017-11-17T12:34:16.132Z,73.54
2017-11-17T12:35:18.941Z,73.16
2017-11-17T12:36:21.633Z,72.78
2017-11-17T12:37:24.919Z,72.55
2017-11-17T12:38:27.620Z,72.45
2017-11-17T12:39:30.910Z,72.77
2017-11-17T12:40:34.217Z,72.65
2017-11-17T12:41:37.005Z,71.67
2017-11-17T12:42:39.764Z,71.07
2017-11-17T12:43:42.456Z,70.10
2017-11-17T12:44:45.548Z,70.25
2017-11-17T12:45:50.852Z,70.46
2017-11-17T12:46:51.029Z,69.65
2017-11-17T12:47:54.527Z,69.17
2017-11-17T12:48:57.249Z,69.01
2017-11-17T12:50:00.111Z,69.08
2017-11-17T12:51:03.597Z,69.31
2017-11-17T12:52:06.707Z,68.29
2017-11-17T12:53:09.563Z,68.27
2017-11-17T12:54:12.191Z,68.45
2017-11-17T12:55:15.462Z,68.75
2017-11-17T12:56:18.113Z,68.45
2017-11-17T12:57:20.799Z,67.99
2017-11-17T12:58:23.546Z,68.38
2017-11-17T12:59:26.262Z,68.91
2017-11-17T13:00:29.019Z,68.23
2017-11-17T13:01:32.400Z,68.39
2017-11-17T13:02:35.109Z,68.64
2017-11-17T13:03:37.789Z,68.81
2017-11-17T13:04:40.501Z,69.12
2017-11-17T13:05:43.766Z,69.07
2017-11-17T13:06:46.737Z,69.23
2017-11-17T13:07:49.537Z,69.45
2017-11-17T13:08:52.420Z,70.02
2017-11-17T13:09:55.249Z,70.00
2017-11-17T13:10:57.985Z,70.49
2017-11-17T13:12:00.784Z,70.52
2017-11-17T13:13:03.503Z,71.33
2017-11-17T13:14:06.341Z,72.04
2017-11-17T13:15:09.447Z,72.47
2017-11-17T13:16:12.187Z,73.07
2017-11-17T13:17:14.941Z,72.85
2017-11-17T13:18:17.823Z,71.91
2017-11-17T13:19:20.733Z,72.79
2017-11-17T13:20:24.370Z,72.20
2017-11-17T13:21:29.109Z,72.00
2017-11-17T13:22:31.962Z,71.62
2017-11-17T13:23:34.666Z,71.47
2017-11-17T13:24:37.428Z,70.95
2017-11-17T13:25:40.226Z,70.98
2017-11-17T13:26:43.561Z,70.44
2017-11-17T13:27:46.630Z,70.46
2017-11-17T13:28:50.673Z,70.44
2017-11-17T13:29:53.610Z,70.14
2017-11-17T13:34:37.179Z,69.25
2017-11-17T13:35:39.916Z,69.79
2017-11-17T13:36:42.715Z,68.93
2017-11-17T13:37:45.471Z,67.70
2017-11-17T13:38:48.228Z,67.37
2017-11-17T13:39:50.928Z,66.76
2017-11-17T13:40:54.130Z,67.35
2017-11-17T13:41:56.916Z,66.22
2017-11-17T13:42:59.585Z,66.50
2017-11-17T13:44:02.340Z,65.27
2017-11-17T13:45:05.070Z,63.87
2017-11-17T13:46:07.779Z,62.17
2017-11-17T13:47:10.853Z,61.80
2017-11-17T13:48:13.671Z,62.81
2017-11-17T13:49:16.394Z,63.78
2017-11-17T13:50:19.817Z,63.07
2017-11-17T13:51:22.671Z,64.28
2017-11-17T13:52:25.607Z,63.96
2017-11-17T13:53:29.036Z,63.74
2017-11-17T13:54:31.700Z,63.66
2017-11-17T13:55:34.540Z,63.93
2017-11-17T13:56:37.596Z,63.30
2017-11-17T13:57:41.459Z,63.65
2017-11-17T14:16:35.218Z,65.88
2017-11-17T14:17:38.203Z,66.71
2017-11-17T14:18:42.692Z,66.80
2017-11-17T14:19:46.659Z,66.61
2017-11-17T14:20:49.426Z,66.48
2017-11-17T14:21:52.994Z,65.89
2017-11-17T14:22:56.778Z,65.80
2017-11-17T14:24:00.181Z,65.96
2017-11-17T14:25:03.168Z,65.91
2017-11-17T14:26:07.068Z,66.66
2017-11-17T14:27:10.609Z,66.90
2017-11-17T14:28:13.930Z,66.45
2017-11-17T14:29:16.796Z,66.67
2017-11-17T14:30:21.109Z,67.14
2017-11-17T14:31:25.098Z,67.19
2017-11-17T14:32:29.280Z,66.95
2017-11-17T14:33:32.749Z,67.78
2017-11-17T14:34:36.913Z,68.13
2017-11-17T14:35:40.367Z,67.84
2017-11-17T14:36:44.370Z,67.80
2017-11-17T14:37:47.358Z,67.57
2017-11-17T14:38:51.296Z,68.13
2017-11-17T14:39:54.986Z,67.92
2017-11-17T14:40:57.874Z,67.90
2017-11-17T14:42:00.876Z,67.87
2017-11-17T14:43:04.205Z,67.58
2017-11-17T14:44:08.192Z,67.66
2017-11-17T14:45:11.785Z,67.72
2017-11-17T14:46:15.648Z,67.60
2017-11-17T14:47:19.040Z,67.21
2017-11-17T14:48:22.871Z,67.71
2017-11-17T14:49:26.318Z,67.93
2017-11-17T14:50:29.429Z,67.89
2017-11-17T14:51:32.349Z,67.93
2017-11-17T14:52:36.835Z,67.87